sensor_id;sensor_type;location;lat;lon;timestamp;P1;durP1;ratioP1;P2;durP2;ratioP2
62010;SDS011;47967;51.756;10.174;2022-11-20T05:04:26;19.88;;;8.80;;
62010;SDS011;47967;51.756;10.174;2022-11-20T05:08:29;17.48;;;8.43;;
62010;SDS011;47967;51.756;10.174;2022-11-20T05:16:34;18.02;;;8.02;;
62010;SDS011;47967;51.756;10.174;2022-11-20T05:20:38;15.32;;;8.18;;
62010;SDS011;47967;51.756;10.174;2022-11-20T05:24:41;18.55;;;8.00;;
62010;SDS011;47967;51.756;10.174;2022-11-20T05:28:44;17.90;;;7.95;;
62010;SDS011;47967;51.756;10.174;2022-11-20T05:32:48;17.48;;;8.30;;
62010;SDS011;47967;51.756;10.174;2022-11-20T05:36:52;14.50;;;7.32;;
62010;SDS011;47967;51.756;10.174;2022-11-20T05:40:54;17.80;;;7.85;;
62010;SDS011;47967;51.756;10.174;2022-11-20T05:44:57;16.67;;;7.55;;
62010;SDS011;47967;51.756;10.174;2022-11-20T05:49:00;19.38;;;7.45;;
62010;SDS011;47967;51.756;10.174;2022-11-20T05:53:04;19.40;;;8.00;;
62010;SDS011;47967;51.756;10.174;2022-11-20T05:57:07;20.60;;;8.45;;
62010;SDS011;47967;51.756;10.174;2022-11-20T06:01:10;22.90;;;8.65;;
62010;SDS011;47967;51.756;10.174;2022-11-20T06:05:14;35.05;;;8.82;;
62010;SDS011;47967;51.756;10.174;2022-11-20T06:09:18;17.67;;;8.35;;
62010;SDS011;47967;51.756;10.174;2022-11-20T06:13:21;20.25;;;8.90;;
62010;SDS011;47967;51.756;10.174;2022-11-20T06:17:24;17.45;;;8.43;;
62010;SDS011;47967;51.756;10.174;2022-11-20T06:21:27;19.77;;;9.07;;
62010;SDS011;47967;51.756;10.174;2022-11-20T06:25:31;23.77;;;9.43;;
62010;SDS011;47967;51.756;10.174;2022-11-20T06:29:34;19.90;;;10.10;;
62010;SDS011;47967;51.756;10.174;2022-11-20T06:33:36;20.95;;;9.25;;
62010;SDS011;47967;51.756;10.174;2022-11-20T06:37:39;20.58;;;10.65;;
62010;SDS011;47967;51.756;10.174;2022-11-20T06:41:43;33.03;;;8.63;;
62010;SDS011;47967;51.756;10.174;2022-11-20T06:45:46;32.25;;;9.85;;
62010;SDS011;47967;51.756;10.174;2022-11-20T06:49:48;34.35;;;9.65;;
62010;SDS011;47967;51.756;10.174;2022-11-20T06:53:51;49.97;;;10.32;;
62010;SDS011;47967;51.756;10.174;2022-11-20T06:57:55;25.15;;;8.50;;
62010;SDS011;47967;51.756;10.174;2022-11-20T07:01:57;71.22;;;10.25;;
62010;SDS011;47967;51.756;10.174;2022-11-20T07:06:00;31.55;;;10.55;;
62010;SDS011;47967;51.756;10.174;2022-11-20T07:10:04;20.77;;;8.80;;
62010;SDS011;47967;51.756;10.174;2022-11-20T07:14:09;30.88;;;9.82;;
62010;SDS011;47967;51.756;10.174;2022-11-20T07:18:11;28.73;;;10.32;;
62010;SDS011;47967;51.756;10.174;2022-11-20T07:22:14;26.35;;;10.98;;
62010;SDS011;47967;51.756;10.174;2022-11-20T07:26:17;36.63;;;13.43;;
62010;SDS011;47967;51.756;10.174;2022-11-20T07:30:21;27.35;;;12.93;;
62010;SDS011;47967;51.756;10.174;2022-11-20T07:34:24;28.80;;;12.82;;
62010;SDS011;47967;51.756;10.174;2022-11-20T07:38:27;27.40;;;12.75;;
62010;SDS011;47967;51.756;10.174;2022-11-20T07:42:30;26.08;;;12.30;;
62010;SDS011;47967;51.756;10.174;2022-11-20T07:46:37;20.63;;;9.65;;
62010;SDS011;47967;51.756;10.174;2022-11-20T07:50:39;18.95;;;9.48;;
62010;SDS011;47967;51.756;10.174;2022-11-20T07:54:42;18.38;;;9.32;;
62010;SDS011;47967;51.756;10.174;2022-11-20T07:58:44;20.15;;;8.70;;
62010;SDS011;47967;51.756;10.174;2022-11-20T08:02:48;18.15;;;8.50;;
62010;SDS011;47967;51.756;10.174;2022-11-20T08:06:51;20.60;;;9.77;;
62010;SDS011;47967;51.756;10.174;2022-11-20T08:19:22;18.92;;;8.10;;
62010;SDS011;47967;51.756;10.174;2022-11-20T08:23:25;21.17;;;10.43;;
62010;SDS011;47967;51.756;10.174;2022-11-20T08:27:28;19.83;;;9.00;;
62010;SDS011;47967;51.756;10.174;2022-11-20T08:31:30;19.13;;;8.85;;
62010;SDS011;47967;51.756;10.174;2022-11-20T08:39:38;17.10;;;7.95;;
62010;SDS011;47967;51.756;10.174;2022-11-20T08:43:41;15.70;;;9.02;;
62010;SDS011;47967;51.756;10.174;2022-11-20T08:47:44;15.18;;;8.25;;
62010;SDS011;47967;51.756;10.174;2022-11-20T08:51:48;13.35;;;7.57;;
62010;SDS011;47967;51.756;10.174;2022-11-20T08:55:53;15.70;;;6.95;;
62010;SDS011;47967;51.756;10.174;2022-11-20T08:59:56;13.73;;;7.50;;
62010;SDS011;47967;51.756;10.174;2022-11-20T09:04:07;13.60;;;7.20;;
62010;SDS011;47967;51.756;10.174;2022-11-20T09:08:11;14.68;;;7.13;;
62010;SDS011;47967;51.756;10.174;2022-11-20T09:12:13;15.82;;;7.57;;
62010;SDS011;47967;51.756;10.174;2022-11-20T09:16:19;13.73;;;7.07;;
62010;SDS011;47967;51.756;10.174;2022-11-20T09:20:23;15.75;;;6.78;;
62010;SDS011;47967;51.756;10.174;2022-11-20T09:24:28;17.15;;;8.30;;
62010;SDS011;47967;51.756;10.174;2022-11-20T09:28:35;14.77;;;7.45;;
62010;SDS011;47967;51.756;10.174;2022-11-20T09:32:38;16.30;;;7.72;;
62010;SDS011;47967;51.756;10.174;2022-11-20T09:40:46;14.68;;;8.05;;
62010;SDS011;47967;51.756;10.174;2022-11-20T09:45:02;18.75;;;8.07;;
62010;SDS011;47967;51.756;10.174;2022-11-20T09:49:17;17.83;;;8.35;;
62010;SDS011;47967;51.756;10.174;2022-11-20T09:53:34;19.15;;;8.95;;
62010;SDS011;47967;51.756;10.174;2022-11-20T09:57:47;16.98;;;8.27;;
62010;SDS011;47967;51.756;10.174;2022-11-20T10:01:53;14.20;;;8.20;;
62010;SDS011;47967;51.756;10.174;2022-11-20T10:05:58;17.55;;;8.90;;
62010;SDS011;47967;51.756;10.174;2022-11-20T10:10:13;20.92;;;8.93;;
62010;SDS011;47967;51.756;10.174;2022-11-20T10:14:23;20.45;;;9.20;;
62010;SDS011;47967;51.756;10.174;2022-11-20T10:18:35;16.47;;;8.13;;
62010;SDS011;47967;51.756;10.174;2022-11-20T10:22:49;17.40;;;8.90;;
62010;SDS011;47967;51.756;10.174;2022-11-20T10:27:05;18.10;;;9.07;;
62010;SDS011;47967;51.756;10.174;2022-11-20T10:31:23;18.52;;;8.20;;
62010;SDS011;47967;51.756;10.174;2022-11-20T10:35:33;21.52;;;9.27;;
62010;SDS011;47967;51.756;10.174;2022-11-20T10:39:42;17.02;;;8.48;;
62010;SDS011;47967;51.756;10.174;2022-11-20T10:43:54;18.60;;;8.60;;
62010;SDS011;47967;51.756;10.174;2022-11-20T10:48:12;20.08;;;9.52;;
62010;SDS011;47967;51.756;10.174;2022-11-20T10:52:20;20.88;;;8.85;;
62010;SDS011;47967;51.756;10.174;2022-11-20T10:56:31;17.65;;;8.27;;
62010;SDS011;47967;51.756;10.174;2022-11-20T11:00:37;17.73;;;7.82;;
62010;SDS011;47967;51.756;10.174;2022-11-20T11:04:43;14.50;;;7.10;;
62010;SDS011;47967;51.756;10.174;2022-11-20T11:08:47;16.33;;;7.95;;
62010;SDS011;47967;51.756;10.174;2022-11-20T11:12:52;15.05;;;7.45;;
62010;SDS011;47967;51.756;10.174;2022-11-20T11:16:55;14.82;;;8.00;;
62010;SDS011;47967;51.756;10.174;2022-11-20T11:21:01;17.27;;;8.35;;
62010;SDS011;47967;51.756;10.174;2022-11-20T11:25:07;17.48;;;8.15;;
62010;SDS011;47967;51.756;10.174;2022-11-20T11:29:21;13.80;;;6.90;;
62010;SDS011;47967;51.756;10.174;2022-11-20T11:33:25;11.93;;;5.38;;
62010;SDS011;47967;51.756;10.174;2022-11-20T11:37:33;15.13;;;7.30;;
62010;SDS011;47967;51.756;10.174;2022-11-20T11:42:11;14.77;;;7.53;;
62010;SDS011;47967;51.756;10.174;2022-11-20T11:46:36;15.82;;;7.72;;
62010;SDS011;47967;51.756;10.174;2022-11-20T11:50:47;14.75;;;7.30;;
62010;SDS011;47967;51.756;10.174;2022-11-20T11:54:53;14.60;;;7.30;;
62010;SDS011;47967;51.756;10.174;2022-11-20T11:58:57;15.13;;;6.85;;
62010;SDS011;47967;51.756;10.174;2022-11-20T12:03:09;16.50;;;7.22;;
62010;SDS011;47967;51.756;10.174;2022-11-20T12:07:19;15.20;;;7.40;;
62010;SDS011;47967;51.756;10.174;2022-11-20T12:11:49;16.17;;;7.63;;
62010;SDS011;47967;51.756;10.174;2022-11-20T12:15:56;15.50;;;6.95;;
62010;SDS011;47967;51.756;10.174;2022-11-20T12:20:00;17.25;;;8.52;;
62010;SDS011;47967;51.756;10.174;2022-11-20T12:24:09;16.70;;;7.60;;
62010;SDS011;47967;51.756;10.174;2022-11-20T12:28:28;14.68;;;7.03;;
62010;SDS011;47967;51.756;10.174;2022-11-20T12:32:46;15.38;;;7.63;;
62010;SDS011;47967;51.756;10.174;2022-11-20T12:37:08;14.73;;;7.28;;
62010;SDS011;47967;51.756;10.174;2022-11-20T12:41:28;13.65;;;7.00;;
62010;SDS011;47967;51.756;10.174;2022-11-20T12:46:25;15.90;;;7.32;;
62010;SDS011;47967;51.756;10.174;2022-11-20T12:50:42;17.60;;;8.10;;
62010;SDS011;47967;51.756;10.174;2022-11-20T12:55:23;13.95;;;7.28;;
62010;SDS011;47967;51.756;10.174;2022-11-20T12:59:37;14.30;;;7.50;;
62010;SDS011;47967;51.756;10.174;2022-11-20T13:03:55;15.35;;;7.38;;
62010;SDS011;47967;51.756;10.174;2022-11-20T13:08:13;14.82;;;7.47;;
62010;SDS011;47967;51.756;10.174;2022-11-20T13:12:23;16.48;;;7.70;;
62010;SDS011;47967;51.756;10.174;2022-11-20T13:16:34;16.25;;;8.18;;
62010;SDS011;47967;51.756;10.174;2022-11-20T13:20:42;16.80;;;7.38;;
62010;SDS011;47967;51.756;10.174;2022-11-20T13:24:49;16.02;;;6.95;;
62010;SDS011;47967;51.756;10.174;2022-11-20T13:28:59;15.80;;;7.88;;
62010;SDS011;47967;51.756;10.174;2022-11-20T13:33:06;15.25;;;7.72;;
62010;SDS011;47967;51.756;10.174;2022-11-20T13:37:24;15.38;;;7.32;;
62010;SDS011;47967;51.756;10.174;2022-11-20T13:41:30;15.05;;;7.82;;
62010;SDS011;47967;51.756;10.174;2022-11-20T13:45:36;15.18;;;7.57;;
62010;SDS011;47967;51.756;10.174;2022-11-20T13:49:39;16.88;;;7.40;;
62010;SDS011;47967;51.756;10.174;2022-11-20T13:53:55;15.23;;;7.35;;
62010;SDS011;47967;51.756;10.174;2022-11-20T13:58:10;16.08;;;7.80;;
62010;SDS011;47967;51.756;10.174;2022-11-20T14:02:29;14.90;;;6.97;;
62010;SDS011;47967;51.756;10.174;2022-11-20T14:06:33;14.57;;;7.40;;
62010;SDS011;47967;51.756;10.174;2022-11-20T14:10:42;18.60;;;7.90;;
62010;SDS011;47967;51.756;10.174;2022-11-20T14:14:49;16.40;;;8.05;;
62010;SDS011;47967;51.756;10.174;2022-11-20T14:18:53;15.63;;;8.00;;
62010;SDS011;47967;51.756;10.174;2022-11-20T14:22:56;15.57;;;7.35;;
62010;SDS011;47967;51.756;10.174;2022-11-20T14:27:00;13.87;;;7.27;;
62010;SDS011;47967;51.756;10.174;2022-11-20T14:31:04;18.48;;;7.88;;
62010;SDS011;47967;51.756;10.174;2022-11-20T14:35:20;18.95;;;8.38;;
62010;SDS011;47967;51.756;10.174;2022-11-20T14:39:27;16.17;;;7.47;;
62010;SDS011;47967;51.756;10.174;2022-11-20T14:43:34;16.33;;;7.68;;
62010;SDS011;47967;51.756;10.174;2022-11-20T14:47:38;15.82;;;7.28;;
62010;SDS011;47967;51.756;10.174;2022-11-20T14:51:42;15.68;;;7.78;;
62010;SDS011;47967;51.756;10.174;2022-11-20T14:55:53;14.57;;;7.05;;
62010;SDS011;47967;51.756;10.174;2022-11-20T15:00:05;17.58;;;8.18;;
62010;SDS011;47967;51.756;10.174;2022-11-20T15:04:10;20.52;;;7.57;;
62010;SDS011;47967;51.756;10.174;2022-11-20T15:08:13;15.02;;;7.25;;
62010;SDS011;47967;51.756;10.174;2022-11-20T15:12:17;14.73;;;7.38;;
62010;SDS011;47967;51.756;10.174;2022-11-20T15:16:21;16.08;;;7.10;;
62010;SDS011;47967;51.756;10.174;2022-11-20T15:20:27;14.35;;;7.18;;
62010;SDS011;47967;51.756;10.174;2022-11-20T15:24:32;14.52;;;6.75;;
62010;SDS011;47967;51.756;10.174;2022-11-20T15:28:35;15.20;;;7.68;;
62010;SDS011;47967;51.756;10.174;2022-11-20T15:32:43;16.60;;;7.72;;
62010;SDS011;47967;51.756;10.174;2022-11-20T15:36:47;18.45;;;8.25;;
62010;SDS011;47967;51.756;10.174;2022-11-20T15:40:49;22.90;;;11.13;;
62010;SDS011;47967;51.756;10.174;2022-11-20T15:44:52;30.40;;;13.65;;
62010;SDS011;47967;51.756;10.174;2022-11-20T15:48:56;21.13;;;10.97;;
62010;SDS011;47967;51.756;10.174;2022-11-20T15:53:01;29.25;;;12.57;;
62010;SDS011;47967;51.756;10.174;2022-11-20T15:57:04;21.08;;;9.60;;
62010;SDS011;47967;51.756;10.174;2022-11-20T16:01:09;14.50;;;6.80;;
62010;SDS011;47967;51.756;10.174;2022-11-20T16:05:14;17.77;;;7.93;;
62010;SDS011;47967;51.756;10.174;2022-11-20T16:09:17;16.85;;;8.02;;
62010;SDS011;47967;51.756;10.174;2022-11-20T16:13:20;16.00;;;7.00;;
62010;SDS011;47967;51.756;10.174;2022-11-20T16:17:40;17.75;;;7.70;;
62010;SDS011;47967;51.756;10.174;2022-11-20T16:21:47;16.00;;;7.18;;
62010;SDS011;47967;51.756;10.174;2022-11-20T16:25:50;21.17;;;8.10;;
62010;SDS011;47967;51.756;10.174;2022-11-20T16:29:53;25.60;;;13.00;;
62010;SDS011;47967;51.756;10.174;2022-11-20T16:33:56;24.07;;;11.97;;
62010;SDS011;47967;51.756;10.174;2022-11-20T16:38:02;24.40;;;12.75;;
62010;SDS011;47967;51.756;10.174;2022-11-20T16:42:05;28.52;;;13.55;;
62010;SDS011;47967;51.756;10.174;2022-11-20T16:46:07;22.17;;;10.82;;
62010;SDS011;47967;51.756;10.174;2022-11-20T16:50:10;24.80;;;13.13;;
62010;SDS011;47967;51.756;10.174;2022-11-20T16:54:14;24.05;;;11.07;;
62010;SDS011;47967;51.756;10.174;2022-11-20T16:58:21;19.42;;;9.02;;
62010;SDS011;47967;51.756;10.174;2022-11-20T17:02:24;35.78;;;14.90;;
62010;SDS011;47967;51.756;10.174;2022-11-20T17:06:28;24.33;;;12.52;;
62010;SDS011;47967;51.756;10.174;2022-11-20T17:10:33;27.80;;;12.60;;
62010;SDS011;47967;51.756;10.174;2022-11-20T17:14:36;28.35;;;12.77;;
62010;SDS011;47967;51.756;10.174;2022-11-20T17:18:38;28.70;;;12.70;;
62010;SDS011;47967;51.756;10.174;2022-11-20T17:26:47;26.13;;;13.73;;
62010;SDS011;47967;51.756;10.174;2022-11-20T17:30:50;25.13;;;14.25;;
62010;SDS011;47967;51.756;10.174;2022-11-20T17:34:52;28.52;;;16.25;;
62010;SDS011;47967;51.756;10.174;2022-11-20T17:38:55;25.47;;;13.23;;
62010;SDS011;47967;51.756;10.174;2022-11-20T17:42:59;20.30;;;10.95;;
62010;SDS011;47967;51.756;10.174;2022-11-20T17:47:02;20.35;;;10.52;;
62010;SDS011;47967;51.756;10.174;2022-11-20T17:51:09;20.83;;;9.20;;
62010;SDS011;47967;51.756;10.174;2022-11-20T17:55:13;18.23;;;9.00;;
62010;SDS011;47967;51.756;10.174;2022-11-20T17:59:18;17.52;;;8.82;;
62010;SDS011;47967;51.756;10.174;2022-11-20T18:03:26;18.77;;;8.95;;
62010;SDS011;47967;51.756;10.174;2022-11-20T18:07:29;16.63;;;8.70;;
62010;SDS011;47967;51.756;10.174;2022-11-20T18:11:32;17.57;;;9.07;;
62010;SDS011;47967;51.756;10.174;2022-11-20T18:15:37;18.48;;;8.52;;
62010;SDS011;47967;51.756;10.174;2022-11-20T18:19:41;18.90;;;9.23;;
62010;SDS011;47967;51.756;10.174;2022-11-20T18:24:08;15.77;;;7.57;;
62010;SDS011;47967;51.756;10.174;2022-11-20T18:28:12;17.73;;;8.73;;
62010;SDS011;47967;51.756;10.174;2022-11-20T18:32:17;22.75;;;10.88;;
62010;SDS011;47967;51.756;10.174;2022-11-20T18:36:23;18.75;;;10.02;;
62010;SDS011;47967;51.756;10.174;2022-11-20T18:40:27;18.90;;;9.88;;
62010;SDS011;47967;51.756;10.174;2022-11-20T18:44:34;16.27;;;8.02;;
62010;SDS011;47967;51.756;10.174;2022-11-20T18:48:53;13.82;;;7.57;;
62010;SDS011;47967;51.756;10.174;2022-11-20T18:52:58;15.00;;;7.63;;
62010;SDS011;47967;51.756;10.174;2022-11-20T18:57:15;14.55;;;7.20;;
62010;SDS011;47967;51.756;10.174;2022-11-20T19:01:19;14.65;;;6.63;;
62010;SDS011;47967;51.756;10.174;2022-11-20T19:05:23;15.07;;;6.57;;
62010;SDS011;47967;51.756;10.174;2022-11-20T19:09:25;14.65;;;6.07;;
62010;SDS011;47967;51.756;10.174;2022-11-20T19:13:31;13.73;;;6.22;;
62010;SDS011;47967;51.756;10.174;2022-11-20T19:17:34;13.45;;;6.30;;
62010;SDS011;47967;51.756;10.174;2022-11-20T19:21:39;14.75;;;6.40;;
62010;SDS011;47967;51.756;10.174;2022-11-20T19:25:57;16.38;;;7.32;;
62010;SDS011;47967;51.756;10.174;2022-11-20T19:30:01;16.10;;;8.00;;
62010;SDS011;47967;51.756;10.174;2022-11-20T19:34:04;14.75;;;7.22;;
62010;SDS011;47967;51.756;10.174;2022-11-20T19:38:09;12.52;;;6.30;;
62010;SDS011;47967;51.756;10.174;2022-11-20T19:42:15;16.05;;;7.88;;
62010;SDS011;47967;51.756;10.174;2022-11-20T19:46:17;17.67;;;8.77;;
62010;SDS011;47967;51.756;10.174;2022-11-20T19:50:22;20.27;;;9.82;;
62010;SDS011;47967;51.756;10.174;2022-11-20T19:54:26;16.75;;;8.68;;
62010;SDS011;47967;51.756;10.174;2022-11-20T19:58:29;15.65;;;8.60;;
62010;SDS011;47967;51.756;10.174;2022-11-20T20:02:32;16.25;;;8.15;;
62010;SDS011;47967;51.756;10.174;2022-11-20T20:06:35;17.30;;;8.97;;
62010;SDS011;47967;51.756;10.174;2022-11-20T20:10:40;17.50;;;9.63;;
62010;SDS011;47967;51.756;10.174;2022-11-20T20:14:58;17.58;;;9.48;;
62010;SDS011;47967;51.756;10.174;2022-11-20T20:19:30;19.45;;;9.02;;
62010;SDS011;47967;51.756;10.174;2022-11-20T20:23:33;17.40;;;8.97;;
62010;SDS011;47967;51.756;10.174;2022-11-20T20:37:15;14.38;;;6.75;;
62010;SDS011;47967;51.756;10.174;2022-11-20T20:41:40;14.43;;;6.50;;
62010;SDS011;47967;51.756;10.174;2022-11-20T20:45:43;11.70;;;6.40;;
62010;SDS011;47967;51.756;10.174;2022-11-20T20:49:50;12.23;;;5.95;;
62010;SDS011;47967;51.756;10.174;2022-11-20T20:53:55;12.38;;;6.20;;
62010;SDS011;47967;51.756;10.174;2022-11-20T20:57:58;15.77;;;7.97;;
62010;SDS011;47967;51.756;10.174;2022-11-20T21:02:04;15.77;;;7.43;;
62010;SDS011;47967;51.756;10.174;2022-11-20T21:06:11;14.52;;;6.80;;
62010;SDS011;47967;51.756;10.174;2022-11-20T21:10:14;16.38;;;7.78;;
62010;SDS011;47967;51.756;10.174;2022-11-20T21:14:23;15.73;;;7.15;;
62010;SDS011;47967;51.756;10.174;2022-11-20T21:22:31;11.27;;;5.93;;
62010;SDS011;47967;51.756;10.174;2022-11-20T21:26:36;12.57;;;6.15;;
62010;SDS011;47967;51.756;10.174;2022-11-20T21:30:39;13.40;;;6.17;;
62010;SDS011;47967;51.756;10.174;2022-11-20T21:34:42;13.57;;;6.37;;
62010;SDS011;47967;51.756;10.174;2022-11-20T21:38:46;11.20;;;5.70;;
62010;SDS011;47967;51.756;10.174;2022-11-20T21:42:49;11.88;;;6.20;;
62010;SDS011;47967;51.756;10.174;2022-11-20T21:46:54;14.75;;;7.82;;
62010;SDS011;47967;51.756;10.174;2022-11-20T21:51:00;15.10;;;7.57;;
62010;SDS011;47967;51.756;10.174;2022-11-20T21:55:08;16.55;;;8.02;;
62010;SDS011;47967;51.756;10.174;2022-11-20T21:59:11;15.02;;;7.45;;
